Ocean Sapphire — VRKL8 — position and weather

sailwx.info

Track history (hours):
 
Tides and Currents Weather Stations Pressure Air Temp Water Temp Dewpoint Dewpoint Depression Visibility Wind Speed Wind Dir Waves Ship Positions

Ocean Sapphire

Last reported at 2015-Aug-22 13:20 UTC. Time now 2015-Sep-05 05:47 UTC.
Position N 31°05' E 122°28'.
Warning: this ship's position is 13 days out of date.

Length 229 m; draft 9.3 m.

Type: Cargo ship. MMSI: 477065400.

Date/timePositionNaut miles runAvg speedWind from/ knotsBaromVisibWave heightAir tempDewpointWater temp
2015-Aug-22 13:20N 31°05' E 122°28'6 7.6
2015-Aug-22 12:33N 31°06' E 122°21'1413.9
2015-Aug-22 11:33N 31°13' E 122°07'1514.6
2015-Aug-22 10:33N 31°16' E 121°51'1212.0
2015-Aug-22 09:34N 31°22' E 121°38'10 9.5
2015-Aug-22 08:33N 31°27' E 121°29'1211.8
2015-Aug-22 07:33N 31°34' E 121°18'1313.5
2015-Aug-22 06:33N 31°44' E 121°07'1313.2
2015-Aug-22 05:33N 31°51' E 120°54'1010.2
2015-Aug-22 04:33N 32°00' E 120°49'0 0.0
2015-Aug-22 02:33N 32°00' E 120°49'0 0.1
2015-Aug-22 01:33N 32°00' E 120°49'0 0.0
2015-Aug-22 00:33N 32°00' E 120°49'0 0.0
2015-Aug-21 23:33N 32°00' E 120°49'0 0.1
2015-Aug-21 22:33N 32°00' E 120°49'0 0.0
2015-Aug-21 21:30N 32°00' E 120°49'0 0.0
2015-Aug-21 20:33N 32°00' E 120°49'0 0.0
2015-Aug-21 19:24N 32°00' E 120°49'0 0.0
2015-Aug-21 18:33N 32°00' E 120°49'0 0.0
2015-Aug-21 17:24N 32°00' E 120°49'0 0.1
2015-Aug-21 16:33N 32°00' E 120°49'0 0.1
2015-Aug-21 15:33N 32°00' E 120°49'0 0.0
2015-Aug-21 14:33N 32°00' E 120°49'0 0.0
2015-Aug-21 12:24N 32°00' E 120°49'0 0.0
2015-Aug-21 10:33N 32°00' E 120°49'0 0.0
2015-Aug-21 09:15N 32°00' E 120°49'0 0.0
2015-Aug-21 07:33N 32°00' E 120°49'0 0.0
2015-Aug-21 05:09N 32°00' E 120°49'0 0.0
2015-Aug-21 04:33N 32°00' E 120°49'0 0.0
2015-Aug-21 03:15N 32°00' E 120°49'0 0.0
2015-Aug-21 02:33N 32°00' E 120°49'0 0.0
2015-Aug-21 00:33N 32°00' E 120°49'0 0.0
2015-Aug-20 23:33N 32°00' E 120°49'0 0.0
2015-Aug-20 22:33N 32°00' E 120°49'0 0.0
2015-Aug-20 21:33N 32°00' E 120°49'0 0.0
2015-Aug-20 20:33N 32°00' E 120°49'0 0.0
2015-Aug-20 19:27N 32°00' E 120°49'0 0.0
2015-Aug-20 13:15N 32°00' E 120°49'0 0.1
2015-Aug-20 12:21N 32°00' E 120°49'0 0.0
2015-Aug-20 10:33N 32°00' E 120°49'0 0.0
2015-Aug-20 09:33N 32°00' E 120°49'0 0.0
2015-Aug-20 06:15N 32°00' E 120°49'0 0.1
2015-Aug-20 05:33N 32°00' E 120°49'0 0.0
2015-Aug-20 02:08N 32°00' E 120°49'0 0.0
2015-Aug-20 01:21N 32°00' E 120°49'0 0.1
2015-Aug-20 00:32N 32°00' E 120°49'0 0.1
2015-Aug-19 23:33N 32°00' E 120°49'0 0.0
2015-Aug-19 22:30N 32°00' E 120°49'0 0.0
2015-Aug-19 21:32N 32°00' E 120°49'0 0.0
2015-Aug-19 20:32N 32°00' E 120°49'0 0.0
2015-Aug-19 19:29N 32°00' E 120°49'0 0.1
2015-Aug-19 18:32N 32°00' E 120°49'0 0.0
2015-Aug-19 17:33N 32°00' E 120°49'0 0.1
2015-Aug-19 16:32N 32°00' E 120°49'0 0.0
2015-Aug-19 13:33N 32°00' E 120°49'3 3.2
2015-Aug-19 12:33N 31°58' E 120°51'10 9.2
2015-Aug-19 11:30N 31°49' E 120°55'1010.4
2015-Aug-19 10:34N 31°45' E 121°06'1212.4
2015-Aug-19 09:34N 31°37' E 121°16'1212.0
2015-Aug-19 08:33N 31°29' E 121°27'7 7.5
2015-Aug-19 07:33N 31°24' E 121°34'1010.3
2015-Aug-19 06:33N 31°19' E 121°44'1110.7
2015-Aug-19 05:33N 31°15' E 121°56'1010.4
2015-Aug-19 04:33N 31°13' E 122°08'1111.1
2015-Aug-19 03:33N 31°06' E 122°19'10 9.4
2015-Aug-19 02:32N 31°07' E 122°30'89 5.5
2015-Aug-18 10:27N 29°38' E 122°35'1010.3
2015-Aug-18 09:31N 29°42' E 122°25'1110.1
2015-Aug-18 08:28N 29°48' E 122°15'1611.5
2015-Aug-18 07:04N 29°57' E 121°60'5 0.2
2015-Aug-17 11:11N 30°02' E 121°59'1 1.2
2015-Aug-17 10:33N 30°01' E 121°59'13 6.6
2015-Aug-17 08:33N 29°53' E 122°11'9 8.5
2015-Aug-17 07:31N 29°46' E 122°18'10 8.9
2015-Aug-17 06:22N 29°42' E 122°29'  
Track history (hours):
 
Tides and Currents Weather Stations Pressure Air Temp Water Temp Dewpoint Dewpoint Depression Visibility Wind Speed Wind Dir Waves Ship Positions

Ocean Sapphire

Last reported at 2015-Aug-22 13:20 UTC. Time now 2015-Sep-05 05:47 UTC.
Position N 31°05' E 122°28'.
Warning: this ship's position is 13 days out of date.

Length 229 m; draft 9.3 m.

Type: Cargo ship. MMSI: 477065400.

Date/timePositionNaut miles runAvg speedWind from/ knotsBaromVisibWave heightAir tempDewpointWater temp
2015-Aug-22 13:20N 31°05' E 122°28'6 7.6
2015-Aug-22 12:33N 31°06' E 122°21'1413.9
2015-Aug-22 11:33N 31°13' E 122°07'1514.6
2015-Aug-22 10:33N 31°16' E 121°51'1212.0
2015-Aug-22 09:34N 31°22' E 121°38'10 9.5
2015-Aug-22 08:33N 31°27' E 121°29'1211.8
2015-Aug-22 07:33N 31°34' E 121°18'1313.5
2015-Aug-22 06:33N 31°44' E 121°07'1313.2
2015-Aug-22 05:33N 31°51' E 120°54'1010.2
2015-Aug-22 04:33N 32°00' E 120°49'0 0.0
2015-Aug-22 02:33N 32°00' E 120°49'0 0.1
2015-Aug-22 01:33N 32°00' E 120°49'0 0.0
2015-Aug-22 00:33N 32°00' E 120°49'0 0.0
2015-Aug-21 23:33N 32°00' E 120°49'0 0.1
2015-Aug-21 22:33N 32°00' E 120°49'0 0.0
2015-Aug-21 21:30N 32°00' E 120°49'0 0.0
2015-Aug-21 20:33N 32°00' E 120°49'0 0.0
2015-Aug-21 19:24N 32°00' E 120°49'0 0.0
2015-Aug-21 18:33N 32°00' E 120°49'0 0.0
2015-Aug-21 17:24N 32°00' E 120°49'0 0.1
2015-Aug-21 16:33N 32°00' E 120°49'0 0.1
2015-Aug-21 15:33N 32°00' E 120°49'0 0.0
2015-Aug-21 14:33N 32°00' E 120°49'0 0.0
2015-Aug-21 12:24N 32°00' E 120°49'0 0.0
2015-Aug-21 10:33N 32°00' E 120°49'0 0.0
2015-Aug-21 09:15N 32°00' E 120°49'0 0.0
2015-Aug-21 07:33N 32°00' E 120°49'0 0.0
2015-Aug-21 05:09N 32°00' E 120°49'0 0.0
2015-Aug-21 04:33N 32°00' E 120°49'0 0.0
2015-Aug-21 03:15N 32°00' E 120°49'0 0.0
2015-Aug-21 02:33N 32°00' E 120°49'0 0.0
2015-Aug-21 00:33N 32°00' E 120°49'0 0.0
2015-Aug-20 23:33N 32°00' E 120°49'0 0.0
2015-Aug-20 22:33N 32°00' E 120°49'0 0.0
2015-Aug-20 21:33N 32°00' E 120°49'0 0.0
2015-Aug-20 20:33N 32°00' E 120°49'0 0.0
2015-Aug-20 19:27N 32°00' E 120°49'0 0.0
2015-Aug-20 13:15N 32°00' E 120°49'0 0.1
2015-Aug-20 12:21N 32°00' E 120°49'0 0.0
2015-Aug-20 10:33N 32°00' E 120°49'0 0.0
2015-Aug-20 09:33N 32°00' E 120°49'0 0.0
2015-Aug-20 06:15N 32°00' E 120°49'0 0.1
2015-Aug-20 05:33N 32°00' E 120°49'0 0.0
2015-Aug-20 02:08N 32°00' E 120°49'0 0.0
2015-Aug-20 01:21N 32°00' E 120°49'0 0.1
2015-Aug-20 00:32N 32°00' E 120°49'0 0.1
2015-Aug-19 23:33N 32°00' E 120°49'0 0.0
2015-Aug-19 22:30N 32°00' E 120°49'0 0.0
2015-Aug-19 21:32N 32°00' E 120°49'0 0.0
2015-Aug-19 20:32N 32°00' E 120°49'0 0.0
2015-Aug-19 19:29N 32°00' E 120°49'0 0.1
2015-Aug-19 18:32N 32°00' E 120°49'0 0.0
2015-Aug-19 17:33N 32°00' E 120°49'0 0.1
2015-Aug-19 16:32N 32°00' E 120°49'0 0.0
2015-Aug-19 13:33N 32°00' E 120°49'3 3.2
2015-Aug-19 12:33N 31°58' E 120°51'10 9.2
2015-Aug-19 11:30N 31°49' E 120°55'1010.4
2015-Aug-19 10:34N 31°45' E 121°06'1212.4
2015-Aug-19 09:34N 31°37' E 121°16'1212.0
2015-Aug-19 08:33N 31°29' E 121°27'7 7.5
2015-Aug-19 07:33N 31°24' E 121°34'1010.3
2015-Aug-19 06:33N 31°19' E 121°44'1110.7
2015-Aug-19 05:33N 31°15' E 121°56'1010.4
2015-Aug-19 04:33N 31°13' E 122°08'1111.1
2015-Aug-19 03:33N 31°06' E 122°19'10 9.4
2015-Aug-19 02:32N 31°07' E 122°30'89 5.5
2015-Aug-18 10:27N 29°38' E 122°35'1010.3
2015-Aug-18 09:31N 29°42' E 122°25'1110.1
2015-Aug-18 08:28N 29°48' E 122°15'1611.5
2015-Aug-18 07:04N 29°57' E 121°60'5 0.2
2015-Aug-17 11:11N 30°02' E 121°59'1 1.2
2015-Aug-17 10:33N 30°01' E 121°59'13 6.6
2015-Aug-17 08:33N 29°53' E 122°11'9 8.5
2015-Aug-17 07:31N 29°46' E 122°18'10 8.9
2015-Aug-17 06:22N 29°42' E 122°29'  

Dump ship's entire track history